• Join FlightAware (Why Join?)
  • Login
  • US Flag 
09:40PM EDT


 

Airport Tracker/Info


-or-


 

Live Flight TrackerFlight Track Log ✈ UAL4533 ✈ 13-Jun-2013 ✈ KEWR - KBUF

Flight Track Log - Related Links

Times and Time Zones

All times are in EDT time to prevent confusion due to time zone crossing. See the UAL4533 flight status page for this flight to view local times or setup timezone preferences in your user account.

Time Position Orientation Groundspeed Altitude Reporting Facility
EDT Latitude Longitude Course Direction KTS MPH feet Rate Location/Type
06:45AM 40.7167 -74.1500 21° North 173 199 900  Level New York TRACON
06:46AM 40.7500 -74.1333 21° North 239 275 2,400 2,100 Climbing New York TRACON
06:47AM 40.8000 -74.2000 315° West 263 303 5,200 2,640 Climbing New York TRACON
06:48AM 40.8500 -74.2667 315° West 252 290 7,700 2,280 Climbing New York TRACON
06:49AM 40.9167 -74.3333 323° Northwest 274 315 9,600 1,560 Climbing New York TRACON
06:50AM 40.9833 -74.3833 330° Northwest 291 335 11,000 1,020 Climbing New York TRACON
06:53AM 41.1847 -74.5453 329° Northwest 358 412 13,500 960 Climbing New York Center
06:54AM 41.2508 -74.6206 319° Northwest 358 412 14,600 1,140 Climbing New York Center
06:55AM 41.3203 -74.7297 310° West 351 404 15,800 960 Climbing New York Center
06:56AM 41.3753 -74.8214 309° West 351 404 16,500 840 Climbing New York Center
06:57AM 41.4406 -74.9275 309° West 362 417 17,500 1,140 Climbing New York Center
06:58AM 41.5056 -75.0314 310° West 362 417 18,800 1,200 Climbing New York Center
06:59AM 41.5642 -75.1378 306° West 357 411 20,000 1,080 Climbing New York Center
07:00AM 41.6033 -75.2567 294° West 357 411 21,100 960 Climbing New York Center
07:01AM 41.6419 -75.3869 292° West 357 411 22,000 420 Climbing New York Center
07:02AM 41.6786 -75.5172 291° West 374 430 22,000  Level New York Center
07:03AM 41.7167 -75.6561 290° West 387 445 22,000  Level New York Center
07:04AM 41.7567 -75.7953 291° West 397 457 22,000  Level New York Center
07:05AM 41.7944 -75.9344 290° West 397 457 22,000  Level New York Center
07:06AM 41.8322 -76.0683 291° West 397 457 22,000  Level New York Center
07:07AM 41.8697 -76.2050 290° West 397 457 22,000  Level New York Center
07:08AM 41.9117 -76.3339 294° West 397 457 22,000  Level New York Center
07:09AM 41.9514 -76.4653 292° West 387 445 22,000  Level New York Center
07:10AM 41.9931 -76.5944 293° West 381 438 22,000  Level New York Center
07:11AM 42.0381 -76.7353 293° West 381 438 22,000  Level New York Center
07:12AM 42.0736 -76.8558 292° West 381 438 22,000  Level New York Center
07:12AM 42.1000 -76.9336 295° West 402 463 22,000  Level Cleveland Center
07:13AM 42.1372 -77.0575 292° West 396 456 22,000  Level Cleveland Center
07:14AM 42.1789 -77.1953 292° West 396 456 22,000  Level Cleveland Center
07:15AM 42.2228 -77.3361 293° West 401 461 22,000 -240 Level Cleveland Center
07:16AM 42.2664 -77.4797 292° West 411 473 21,600 -960 Descending Cleveland Center
07:17AM 42.3075 -77.6153 292° West 406 467 20,100 -1,920 Descending Cleveland Center
07:18AM 42.3483 -77.7511 292° West 395 455 17,900 -2,100 Descending Cleveland Center
07:19AM 42.3892 -77.8900 292° West 395 455 15,900 -2,100 Descending Cleveland Center
07:20AM 42.4297 -78.0233 292° West 396 456 13,800 -2,100 Descending Cleveland Center
07:21AM 42.4636 -78.1458 291° West 372 428 11,800 -1,440 Descending Cleveland Center
07:22AM 42.4994 -78.2683 292° West 354 407 11,000 -360 Descending Cleveland Center
07:23AM 42.5372 -78.3853 294° West 338 389 11,100  Climbing Cleveland Center
07:24AM 42.5728 -78.5081 292° West 343 395 11,000 -540 Descending Cleveland Center
07:25AM 42.6061 -78.6142 293° West 334 384 10,100 -1,200 Descending Cleveland Center
07:26AM 42.6369 -78.7147 293° West 304 350 8,700 -1,800 Descending Cleveland Center
07:27AM 42.6903 -78.7922 313° West 282 325 6,500 -2,100 Descending Cleveland Center
07:28AM 42.7350 -78.8589 312° West 277 319 4,500 -1,620 Descending Cleveland Center
07:29AM 42.7942 -78.9081 329° Northwest 254 292 3,300 -840 Descending Cleveland Center
07:32AM 42.8833 -78.8000 42° Northeast 182 209 1,900 -660 Descending Buffalo TRACON
07:33AM 42.9167 -78.7667 36° Northeast 126 145 1,200 -720 Descending Buffalo TRACON